createdAt,value
2017-12-23T00:02:20.336Z,161.35
2017-12-23T00:04:47.838Z,174.87
2017-12-23T00:07:15.359Z,160.02
2017-12-23T00:09:42.872Z,158.80
2017-12-23T00:12:11.163Z,181.02
2017-12-23T00:14:38.682Z,167.35
2017-12-23T00:17:06.185Z,178.80
2017-12-23T00:19:33.720Z,153.87
2017-12-23T00:22:01.227Z,176.87
2017-12-23T00:24:28.767Z,170.38
2017-12-23T00:26:56.271Z,158.73
2017-12-23T00:29:24.536Z,166.32
2017-12-23T00:31:52.068Z,165.90
2017-12-23T00:34:31.354Z,157.90
2017-12-23T00:36:58.896Z,166.27
2017-12-23T00:39:26.512Z,154.73
2017-12-23T00:41:54.056Z,146.55
2017-12-23T00:44:21.578Z,166.90
2017-12-23T00:46:49.096Z,158.02
2017-12-23T00:49:16.638Z,141.10
2017-12-23T00:51:44.156Z,156.37
2017-12-23T00:54:12.457Z,157.90
2017-12-23T00:56:39.980Z,145.98
2017-12-23T00:59:07.482Z,167.30
2017-12-23T01:01:34.994Z,155.27
2017-12-23T01:04:02.522Z,142.98
2017-12-23T01:06:30.062Z,145.32
2017-12-23T01:08:57.589Z,150.87
2017-12-23T01:11:25.118Z,153.70
2017-12-23T01:13:52.664Z,154.20
2017-12-23T01:16:20.166Z,139.85
2017-12-23T01:18:47.688Z,156.35
2017-12-23T01:21:15.217Z,160.60
2017-12-23T01:23:42.721Z,144.95
2017-12-23T01:26:10.241Z,163.15
2017-12-23T01:28:37.745Z,159.93
2017-12-23T01:31:05.284Z,156.37
2017-12-23T01:33:32.791Z,147.10
2017-12-23T01:36:01.064Z,146.23
2017-12-23T01:38:29.375Z,156.45
2017-12-23T01:40:56.893Z,162.65
2017-12-23T01:43:24.421Z,142.52
2017-12-23T01:45:51.922Z,144.23
2017-12-23T01:48:32.210Z,172.13
2017-12-23T01:50:59.733Z,178.23
2017-12-23T01:53:27.253Z,187.57
2017-12-23T01:55:54.758Z,178.60
2017-12-23T01:58:23.033Z,197.20
2017-12-23T02:00:51.327Z,170.68
2017-12-23T02:03:18.853Z,197.32
2017-12-23T02:05:46.366Z,185.37
2017-12-23T02:08:13.865Z,172.10
2017-12-23T02:10:42.883Z,166.90
2017-12-23T02:13:11.194Z,158.10
2017-12-23T02:15:38.702Z,155.70
2017-12-23T02:18:06.232Z,149.13
2017-12-23T02:20:34.216Z,149.98
2017-12-23T02:23:01.723Z,145.50
2017-12-23T02:25:29.260Z,137.43
2017-12-23T02:27:57.545Z,143.62
2017-12-23T02:30:25.853Z,130.30
2017-12-23T02:32:53.373Z,127.55
2017-12-23T02:35:21.663Z,128.93
2017-12-23T02:37:49.180Z,136.57
2017-12-23T02:40:16.706Z,139.85
2017-12-23T02:42:44.225Z,143.30
2017-12-23T02:45:12.499Z,140.82
2017-12-23T02:47:40.782Z,131.68
2017-12-23T02:50:09.073Z,146.82
2017-12-23T02:52:36.617Z,155.40
2017-12-23T02:55:04.892Z,149.57
2017-12-23T02:57:33.210Z,145.02
2017-12-23T03:00:00.710Z,156.30
2017-12-23T03:02:28.229Z,157.75
2017-12-23T03:04:55.751Z,154.82
2017-12-23T03:07:23.262Z,153.62
2017-12-23T03:09:50.790Z,148.77
2017-12-23T03:12:18.299Z,149.00
2017-12-23T03:14:45.821Z,157.73
2017-12-23T03:17:13.341Z,174.10
2017-12-23T03:19:41.626Z,153.10
2017-12-23T03:22:09.183Z,165.57
2017-12-23T03:24:36.690Z,170.80
2017-12-23T03:27:04.217Z,171.37
2017-12-23T03:29:31.721Z,146.77
2017-12-23T03:31:59.238Z,154.63
2017-12-23T03:34:26.738Z,141.88
2017-12-23T03:36:54.248Z,126.57
2017-12-23T03:39:21.903Z,124.65
2017-12-23T03:41:49.476Z,123.30
2017-12-23T03:44:17.004Z,119.40
2017-12-23T03:46:45.298Z,115.97
2017-12-23T03:49:12.834Z,118.72
2017-12-23T03:51:41.120Z,112.55
2017-12-23T03:54:08.696Z,100.10
2017-12-23T03:56:36.219Z,100.07
2017-12-23T03:59:04.499Z,106.27
2017-12-23T04:01:32.787Z,102.65
2017-12-23T04:04:00.330Z,97.60
2017-12-23T04:06:27.865Z,79.97
2017-12-23T04:08:55.381Z,94.93
2017-12-23T04:11:22.897Z,80.53
2017-12-23T04:13:51.422Z,84.80
2017-12-23T04:16:18.926Z,82.10
2017-12-23T04:18:46.456Z,71.50
2017-12-23T04:21:13.973Z,76.07
2017-12-23T04:23:41.507Z,71.93
2017-12-23T04:26:09.788Z,67.07
2017-12-23T04:28:38.058Z,72.12
2017-12-23T04:31:06.357Z,66.28
2017-12-23T04:33:34.634Z,63.23
2017-12-23T04:36:02.155Z,62.42
2017-12-23T04:38:30.425Z,54.42
2017-12-23T04:40:58.040Z,61.90
2017-12-23T04:43:25.538Z,57.95
2017-12-23T04:45:53.055Z,64.85
2017-12-23T04:48:20.608Z,75.53
2017-12-23T04:50:48.111Z,61.08
2017-12-23T04:53:15.644Z,63.80
2017-12-23T04:55:43.147Z,58.95
2017-12-23T04:58:11.689Z,60.47
2017-12-23T05:00:39.338Z,52.28
2017-12-23T05:03:06.834Z,57.03
2017-12-23T05:05:34.369Z,58.60
2017-12-23T05:08:01.889Z,46.25
2017-12-23T05:10:29.411Z,48.55
2017-12-23T05:12:56.916Z,50.97
2017-12-23T05:15:24.460Z,57.83
2017-12-23T05:17:51.974Z,56.90
2017-12-23T05:20:19.491Z,58.35
2017-12-23T05:22:47.028Z,54.47
2017-12-23T05:25:14.526Z,57.47
2017-12-23T05:27:42.051Z,53.38
2017-12-23T05:30:09.546Z,55.75
2017-12-23T05:32:37.089Z,57.30
2017-12-23T05:35:04.595Z,53.80
2017-12-23T05:37:32.104Z,73.53
2017-12-23T05:39:59.663Z,69.20
2017-12-23T05:42:27.163Z,69.15
2017-12-23T05:44:54.695Z,71.20
2017-12-23T05:47:22.204Z,78.10
2017-12-23T05:49:50.508Z,98.05
2017-12-23T05:52:18.016Z,99.62
2017-12-23T05:54:45.523Z,96.85
2017-12-23T05:57:13.057Z,109.32
2017-12-23T05:59:40.565Z,114.12
2017-12-23T06:02:08.082Z,122.95
2017-12-23T06:04:35.608Z,106.60
2017-12-23T06:07:03.146Z,106.20
2017-12-23T06:09:30.647Z,90.95
2017-12-23T06:11:58.150Z,106.93
2017-12-23T06:14:25.693Z,103.72
2017-12-23T06:16:53.194Z,109.22
2017-12-23T06:19:21.496Z,116.80
2017-12-23T06:21:49.767Z,135.90
2017-12-23T06:24:18.085Z,105.90
2017-12-23T06:26:45.585Z,120.72
2017-12-23T06:29:13.101Z,109.32
2017-12-23T06:31:40.628Z,102.03
2017-12-23T06:34:08.912Z,103.68
2017-12-23T06:36:36.430Z,97.28
2017-12-23T06:39:03.936Z,80.12
2017-12-23T06:41:31.467Z,108.37
2017-12-23T06:43:59.736Z,96.90
2017-12-23T06:46:27.258Z,108.85
2017-12-23T06:48:55.572Z,121.37
2017-12-23T06:51:23.188Z,120.20
2017-12-23T06:53:50.725Z,115.68
2017-12-23T06:56:18.227Z,126.43
2017-12-23T06:58:45.790Z,120.50
2017-12-23T07:01:13.294Z,125.38
2017-12-23T07:03:40.807Z,126.28
2017-12-23T07:06:08.333Z,131.63
2017-12-23T07:08:35.838Z,145.90
2017-12-23T07:11:03.358Z,150.20
2017-12-23T07:13:30.853Z,169.77
2017-12-23T07:15:58.387Z,151.57
2017-12-23T07:18:25.900Z,167.60
2017-12-23T07:20:53.399Z,158.18
2017-12-23T07:23:20.918Z,184.57
2017-12-23T07:25:48.423Z,160.85
2017-12-23T07:28:15.944Z,162.75
2017-12-23T07:30:43.470Z,161.43
2017-12-23T07:33:11.780Z,158.75
2017-12-23T07:35:39.297Z,135.50
2017-12-23T07:38:06.825Z,135.52
2017-12-23T07:40:34.342Z,150.87
2017-12-23T07:43:02.620Z,146.03
2017-12-23T07:45:30.146Z,123.32
2017-12-23T07:47:57.643Z,154.77
2017-12-23T07:50:25.216Z,149.38
2017-12-23T07:52:52.732Z,142.90
2017-12-23T07:55:21.006Z,149.07
2017-12-23T07:57:48.540Z,141.48
2017-12-23T08:00:16.056Z,170.93
2017-12-23T08:02:43.576Z,147.27
2017-12-23T08:05:11.087Z,170.15
2017-12-23T08:07:38.614Z,159.00
2017-12-23T08:10:06.896Z,168.93
2017-12-23T08:12:34.421Z,199.35
2017-12-23T08:15:02.759Z,165.07
2017-12-23T08:17:30.276Z,162.12
2017-12-23T08:19:58.563Z,143.10
2017-12-23T08:22:26.840Z,130.90
2017-12-23T08:24:55.135Z,131.65
2017-12-23T08:27:22.638Z,125.55
2017-12-23T08:29:50.148Z,132.07
2017-12-23T08:32:17.673Z,138.20
2017-12-23T08:34:45.179Z,127.22
2017-12-23T08:37:12.726Z,118.35
2017-12-23T08:39:40.303Z,126.50
2017-12-23T08:42:07.862Z,118.28
2017-12-23T08:44:35.398Z,113.18
2017-12-23T08:47:02.913Z,127.68
2017-12-23T08:49:30.454Z,128.40
2017-12-23T08:51:57.978Z,127.00
2017-12-23T08:54:25.503Z,124.70
2017-12-23T08:56:53.774Z,119.18
2017-12-23T08:59:21.327Z,114.22
2017-12-23T09:01:48.836Z,127.95
2017-12-23T09:04:16.356Z,105.87
2017-12-23T09:06:43.889Z,99.50
2017-12-23T09:09:11.408Z,104.28
2017-12-23T09:11:38.922Z,113.00
2017-12-23T09:14:06.442Z,105.10
2017-12-23T09:16:33.985Z,119.80
2017-12-23T09:19:01.495Z,103.62
2017-12-23T09:21:29.012Z,117.30
2017-12-23T09:23:56.549Z,108.43
2017-12-23T09:26:24.066Z,83.37
2017-12-23T09:28:51.607Z,96.18
2017-12-23T09:31:19.110Z,91.75
2017-12-23T09:33:47.402Z,101.22
2017-12-23T09:36:14.971Z,79.37
2017-12-23T09:38:42.484Z,75.12
2017-12-23T09:41:10.109Z,94.13
2017-12-23T09:43:37.610Z,89.70
2017-12-23T09:46:05.127Z,94.68
2017-12-23T09:48:32.643Z,82.57
2017-12-23T09:51:00.938Z,78.20
2017-12-23T09:53:28.456Z,69.50
2017-12-23T09:55:55.973Z,78.32
2017-12-23T09:58:23.513Z,84.87
2017-12-23T10:00:51.029Z,89.82
2017-12-23T10:03:18.569Z,87.18
2017-12-23T10:05:46.074Z,86.60
2017-12-23T10:08:13.599Z,85.23
2017-12-23T10:10:41.118Z,89.43
2017-12-23T10:13:08.682Z,98.87
2017-12-23T10:15:36.198Z,105.43
2017-12-23T10:18:04.461Z,103.28
2017-12-23T10:20:31.978Z,114.05
2017-12-23T10:22:59.479Z,111.95
2017-12-23T10:25:27.016Z,105.40
2017-12-23T10:27:54.518Z,112.33
2017-12-23T10:30:22.094Z,96.50
2017-12-23T10:32:49.615Z,88.03
2017-12-23T10:35:17.891Z,103.47
2017-12-23T10:37:46.186Z,119.60
2017-12-23T10:40:14.465Z,96.37
2017-12-23T10:42:41.991Z,97.57
2017-12-23T10:45:11.017Z,103.12
2017-12-23T10:47:39.301Z,101.23
2017-12-23T10:50:06.815Z,97.00
2017-12-23T10:52:34.319Z,85.83
2017-12-23T10:55:01.860Z,82.70
2017-12-23T10:57:30.144Z,88.55
2017-12-23T10:59:57.689Z,88.10
2017-12-23T11:02:25.963Z,103.70
2017-12-23T11:04:54.249Z,87.90
2017-12-23T11:07:22.565Z,90.12
2017-12-23T11:09:50.089Z,102.80
2017-12-23T11:12:17.756Z,87.70
2017-12-23T11:14:45.273Z,80.90
2017-12-23T11:17:12.821Z,75.60
2017-12-23T11:19:40.321Z,71.97
2017-12-23T11:22:08.583Z,69.90
2017-12-23T11:24:36.095Z,59.67
2017-12-23T11:27:03.602Z,66.53
2017-12-23T11:29:31.882Z,65.32
2017-12-23T11:32:00.158Z,72.33
2017-12-23T11:34:28.436Z,59.83
2017-12-23T11:36:56.717Z,60.60
2017-12-23T11:39:25.020Z,63.90
2017-12-23T11:41:52.536Z,66.07
2017-12-23T11:44:20.058Z,59.70
2017-12-23T11:46:47.589Z,67.90
2017-12-23T11:49:15.091Z,61.67
2017-12-23T11:51:42.611Z,55.10
2017-12-23T11:54:10.110Z,64.05
2017-12-23T11:56:37.693Z,57.45
2017-12-23T11:59:05.164Z,62.60
2017-12-23T12:01:33.451Z,57.13
2017-12-23T12:04:00.959Z,69.60
2017-12-23T12:06:28.455Z,63.00
2017-12-23T12:08:56.765Z,61.83
2017-12-23T12:11:24.262Z,67.10
2017-12-23T12:13:51.796Z,64.10
2017-12-23T12:16:19.310Z,56.67
2017-12-23T12:18:47.617Z,65.97
2017-12-23T12:21:15.119Z,61.87
2017-12-23T12:23:42.617Z,70.40
2017-12-23T12:26:10.158Z,54.75
2017-12-23T12:28:37.684Z,49.90
2017-12-23T12:31:05.225Z,40.97
2017-12-23T12:33:32.749Z,36.03
2017-12-23T12:36:00.288Z,38.95
2017-12-23T12:38:28.552Z,42.20
2017-12-23T12:40:56.836Z,42.92
2017-12-23T12:43:25.123Z,32.30
2017-12-23T12:45:52.636Z,32.60
2017-12-23T12:48:20.166Z,30.60
2017-12-23T12:50:47.672Z,25.10
2017-12-23T12:53:15.191Z,26.23
2017-12-23T12:55:42.695Z,28.60
2017-12-23T12:58:10.214Z,23.57
2017-12-23T13:00:37.736Z,24.77
2017-12-23T13:03:05.264Z,27.35
2017-12-23T13:05:32.808Z,22.63
2017-12-23T13:08:00.320Z,23.03
2017-12-23T13:10:27.855Z,20.60
2017-12-23T13:12:56.145Z,25.20
2017-12-23T13:15:23.695Z,25.88
2017-12-23T13:17:51.970Z,32.03
2017-12-23T13:20:20.262Z,25.15
2017-12-23T13:22:48.218Z,22.27
2017-12-23T13:25:15.722Z,27.97
2017-12-23T13:27:43.233Z,32.67
2017-12-23T13:30:10.748Z,33.63
2017-12-23T13:32:38.288Z,34.00
2017-12-23T13:35:05.837Z,33.93
2017-12-23T13:37:33.358Z,35.77
2017-12-23T13:40:01.650Z,41.17
2017-12-23T13:42:29.189Z,36.87
2017-12-23T13:44:58.464Z,32.83
2017-12-23T13:47:27.479Z,39.00
2017-12-23T13:49:54.990Z,35.27
2017-12-23T13:52:22.501Z,38.77
2017-12-23T13:54:50.782Z,34.97
2017-12-23T13:57:19.039Z,33.63
2017-12-23T13:59:46.588Z,35.23
2017-12-23T14:02:14.103Z,31.65
2017-12-23T14:04:41.667Z,28.40
2017-12-23T14:07:09.201Z,26.12
2017-12-23T14:09:36.726Z,25.70
2017-12-23T14:12:05.028Z,29.02
2017-12-23T14:14:33.295Z,32.20
2017-12-23T14:17:01.583Z,21.30
2017-12-23T14:19:29.859Z,25.30
2017-12-23T14:21:57.381Z,25.07
2017-12-23T14:24:24.898Z,27.27
2017-12-23T14:26:52.407Z,24.53
2017-12-23T14:29:19.923Z,23.40
2017-12-23T14:31:47.422Z,27.43
2017-12-23T14:34:14.946Z,31.98
2017-12-23T14:36:42.470Z,25.73
2017-12-23T14:39:09.975Z,25.60
2017-12-23T14:41:37.504Z,23.83
2017-12-23T14:44:05.071Z,27.53
2017-12-23T14:46:32.638Z,24.20
2017-12-23T14:49:00.143Z,29.30
2017-12-23T14:51:27.668Z,27.20
2017-12-23T14:53:55.174Z,23.60
2017-12-23T14:56:23.478Z,19.20
2017-12-23T14:58:50.988Z,27.00
2017-12-23T15:01:18.487Z,31.87
2017-12-23T15:03:46.017Z,28.73
2017-12-23T15:06:14.286Z,28.48
2017-12-23T15:08:41.818Z,33.03
2017-12-23T15:11:09.320Z,30.20
2017-12-23T15:13:37.624Z,27.62
2017-12-23T15:16:05.193Z,31.73
2017-12-23T15:18:32.687Z,33.60
2017-12-23T15:21:00.207Z,35.13
2017-12-23T15:23:27.716Z,34.90
2017-12-23T15:25:55.234Z,33.97
2017-12-23T15:28:23.068Z,39.90
2017-12-23T15:30:50.612Z,36.83
2017-12-23T15:33:18.892Z,36.17
2017-12-23T15:35:46.448Z,40.10
2017-12-23T15:38:14.733Z,37.33
2017-12-23T15:40:43.090Z,38.25
2017-12-23T15:43:11.398Z,38.53
2017-12-23T15:45:38.904Z,41.90
2017-12-23T15:48:06.433Z,43.50
2017-12-23T15:50:34.517Z,40.97
2017-12-23T15:53:02.060Z,42.33
2017-12-23T15:55:29.579Z,36.43
2017-12-23T15:57:57.861Z,38.07
2017-12-23T16:00:26.164Z,37.47
2017-12-23T16:02:53.668Z,37.47
2017-12-23T16:05:21.201Z,29.87
2017-12-23T16:07:48.704Z,30.63
2017-12-23T16:10:16.230Z,30.73
2017-12-23T16:12:43.736Z,39.13
2017-12-23T16:15:12.021Z,32.08
2017-12-23T16:17:39.565Z,31.80
2017-12-23T16:20:07.854Z,34.57
2017-12-23T16:22:36.139Z,42.20
2017-12-23T16:25:03.648Z,36.03
2017-12-23T16:27:31.170Z,32.30
2017-12-23T16:29:58.688Z,35.73
2017-12-23T16:32:26.217Z,40.37
2017-12-23T16:34:53.755Z,42.92
2017-12-23T16:37:21.263Z,37.00
2017-12-23T16:39:48.791Z,46.10
2017-12-23T16:42:16.300Z,41.15
2017-12-23T16:44:43.850Z,40.37
2017-12-23T16:47:12.123Z,41.20
2017-12-23T16:49:40.399Z,43.87
2017-12-23T16:52:07.929Z,40.47
2017-12-23T16:54:35.431Z,43.93
2017-12-23T16:57:02.987Z,42.80
2017-12-23T16:59:30.525Z,43.67
2017-12-23T17:01:58.839Z,34.33
2017-12-23T17:04:26.351Z,42.00
2017-12-23T17:06:55.381Z,33.20
2017-12-23T17:09:22.909Z,39.05
2017-12-23T17:11:50.429Z,40.08
2017-12-23T17:14:17.951Z,44.75
2017-12-23T17:16:46.238Z,46.37
2017-12-23T17:19:13.767Z,43.13
2017-12-23T17:21:41.270Z,43.65
2017-12-23T17:24:08.770Z,46.93
2017-12-23T17:26:36.288Z,46.27
2017-12-23T17:29:15.569Z,48.15
2017-12-23T17:31:43.070Z,45.22
2017-12-23T17:34:10.588Z,43.45
2017-12-23T17:36:38.888Z,44.63
2017-12-23T17:39:07.164Z,41.30
2017-12-23T17:41:35.451Z,38.75
2017-12-23T17:44:03.715Z,37.73
2017-12-23T17:46:31.249Z,39.28
2017-12-23T17:48:58.764Z,42.95
2017-12-23T17:51:26.280Z,36.37
2017-12-23T17:53:53.819Z,35.20
2017-12-23T17:56:21.320Z,33.93
2017-12-23T17:58:49.608Z,38.37
2017-12-23T18:01:17.912Z,39.67
2017-12-23T18:03:45.454Z,36.60
2017-12-23T18:06:12.964Z,39.77
2017-12-23T18:08:40.477Z,37.63
2017-12-23T18:11:08.009Z,37.23
2017-12-23T18:13:36.296Z,33.83
2017-12-23T18:16:04.677Z,38.90
2017-12-23T18:18:32.178Z,42.00
2017-12-23T18:20:59.702Z,43.90
2017-12-23T18:23:27.198Z,44.33
2017-12-23T18:25:54.710Z,43.87
2017-12-23T18:28:22.246Z,37.35
2017-12-23T18:30:50.537Z,46.08
2017-12-23T18:33:18.845Z,36.90
2017-12-23T18:35:46.374Z,38.88
2017-12-23T18:38:13.909Z,35.67
2017-12-23T18:40:42.213Z,34.55
2017-12-23T18:43:10.488Z,36.50
2017-12-23T18:45:38.779Z,34.77
2017-12-23T18:48:06.283Z,31.97
2017-12-23T18:50:34.505Z,38.70
2017-12-23T18:53:02.025Z,44.50
2017-12-23T18:55:29.545Z,42.35
2017-12-23T18:57:57.075Z,37.90
2017-12-23T19:00:25.340Z,28.97
2017-12-23T19:02:53.652Z,36.83
2017-12-23T19:05:21.152Z,39.00
2017-12-23T19:07:48.707Z,38.30
2017-12-23T19:10:16.229Z,39.63
2017-12-23T19:12:43.770Z,32.20
2017-12-23T19:15:11.291Z,44.05
2017-12-23T19:17:38.803Z,38.78
2017-12-23T19:20:06.349Z,43.67
2017-12-23T19:22:33.865Z,36.73
2017-12-23T19:25:01.487Z,35.90
2017-12-23T19:27:28.996Z,38.28
2017-12-23T19:29:56.596Z,36.27
2017-12-23T19:32:24.118Z,34.80
2017-12-23T19:34:51.619Z,36.20
2017-12-23T19:37:19.138Z,37.33
2017-12-23T19:39:47.417Z,39.07
2017-12-23T19:42:15.710Z,37.00
2017-12-23T19:44:43.219Z,41.72
2017-12-23T19:47:10.726Z,35.00
2017-12-23T19:49:38.239Z,37.83
2017-12-23T19:52:05.739Z,43.67
2017-12-23T19:54:33.262Z,41.77
2017-12-23T19:57:00.758Z,39.70
2017-12-23T19:59:29.043Z,40.47
2017-12-23T20:01:56.549Z,36.30
2017-12-23T20:04:24.049Z,32.30
2017-12-23T20:06:51.589Z,36.75
2017-12-23T20:09:19.873Z,40.60
2017-12-23T20:11:48.164Z,44.27
2017-12-23T20:14:15.679Z,38.38
2017-12-23T20:16:43.212Z,40.07
2017-12-23T20:19:10.706Z,35.80
2017-12-23T20:21:38.217Z,38.63
2017-12-23T20:24:05.721Z,45.00
2017-12-23T20:26:33.219Z,40.13
2017-12-23T20:29:00.754Z,41.67
2017-12-23T20:31:29.028Z,37.73
2017-12-23T20:33:57.325Z,42.17
2017-12-23T20:36:24.824Z,40.17
2017-12-23T20:38:52.349Z,40.33
2017-12-23T20:41:19.846Z,37.00
2017-12-23T20:43:47.484Z,42.20
2017-12-23T20:46:14.999Z,41.70
2017-12-23T20:48:43.276Z,37.63
2017-12-23T20:51:11.559Z,39.00
2017-12-23T20:53:39.823Z,37.27
2017-12-23T20:56:08.120Z,37.67
2017-12-23T20:58:36.402Z,35.30
2017-12-23T21:01:03.894Z,41.90
2017-12-23T21:03:31.420Z,36.00
2017-12-23T21:05:58.933Z,37.73
2017-12-23T21:08:26.442Z,36.23
2017-12-23T21:10:53.943Z,41.60
2017-12-23T21:13:21.466Z,43.80
2017-12-23T21:15:48.963Z,39.73
2017-12-23T21:18:16.473Z,43.80
2017-12-23T21:20:43.983Z,43.57
2017-12-23T21:23:11.505Z,42.60
2017-12-23T21:25:39.041Z,40.83
2017-12-23T21:28:06.556Z,44.80
2017-12-23T21:30:34.526Z,35.17
2017-12-23T21:33:02.045Z,35.63
2017-12-23T21:35:29.581Z,34.17
2017-12-23T21:37:57.113Z,37.20
2017-12-23T21:40:24.674Z,36.40
2017-12-23T21:42:52.187Z,40.07
2017-12-23T21:45:19.697Z,32.93
2017-12-23T21:47:47.979Z,39.80
2017-12-23T21:50:16.239Z,34.27
2017-12-23T21:52:43.771Z,40.17
2017-12-23T21:55:11.285Z,32.27
2017-12-23T21:57:38.873Z,35.70
2017-12-23T22:00:06.397Z,42.45
2017-12-23T22:02:34.701Z,38.03
2017-12-23T22:05:02.263Z,36.33
2017-12-23T22:07:29.762Z,36.27
2017-12-23T22:09:57.275Z,36.70
2017-12-23T22:12:24.789Z,39.00
2017-12-23T22:14:52.307Z,36.77
2017-12-23T22:17:19.798Z,40.93
2017-12-23T22:19:47.319Z,34.40
2017-12-23T22:22:14.805Z,34.50
2017-12-23T22:24:42.348Z,34.47
2017-12-23T22:27:09.842Z,35.60
2017-12-23T22:29:38.098Z,35.80
2017-12-23T22:32:05.606Z,27.00
2017-12-23T22:34:33.101Z,29.30
2017-12-23T22:37:00.628Z,24.93
2017-12-23T22:39:28.145Z,29.03
2017-12-23T22:41:55.689Z,25.00
2017-12-23T22:44:23.206Z,27.93
2017-12-23T22:46:50.721Z,25.93
2017-12-23T22:49:18.229Z,23.07
2017-12-23T22:51:45.726Z,24.43
2017-12-23T22:54:13.245Z,25.03
2017-12-23T22:56:40.762Z,25.90
2017-12-23T22:59:09.067Z,22.77
2017-12-23T23:01:36.584Z,25.87
2017-12-23T23:04:04.100Z,27.05
2017-12-23T23:06:31.633Z,26.02
2017-12-23T23:08:59.130Z,23.33
2017-12-23T23:11:26.647Z,30.33
2017-12-23T23:13:54.147Z,23.23
2017-12-23T23:16:21.689Z,25.13
2017-12-23T23:18:49.205Z,28.60
2017-12-23T23:21:17.474Z,30.03
2017-12-23T23:23:45.778Z,23.23
2017-12-23T23:26:13.287Z,25.17
2017-12-23T23:28:40.806Z,27.10
2017-12-23T23:31:08.316Z,22.47
2017-12-23T23:33:35.849Z,25.63
2017-12-23T23:36:03.386Z,26.50
2017-12-23T23:38:30.969Z,23.50
2017-12-23T23:40:58.426Z,25.03
2017-12-23T23:43:25.937Z,29.10
2017-12-23T23:45:54.233Z,24.50
2017-12-23T23:48:21.748Z,25.40
2017-12-23T23:50:49.277Z,25.93
2017-12-23T23:53:16.784Z,28.00
2017-12-23T23:55:45.075Z,29.73
2017-12-23T23:58:12.584Z,30.60
